Armstrong, Florida
Current Conditions -  °F | °C
As of 11:58 PM on Tuesday 21 Oct 2014 (Local Time) from KSGJ Reporting Station
Clear Clear  
Wind Chill: 68°   Ceiling: Unl
Heat Index: 68°   Visibility: 10mi
Dew Point: 66°   Wind: 5mph
Humidity: 93%   Direction: 290°WNW
Pressure: 29.97"   Gusts: NA
Location:  29.7919°N, 81.4499°W
Report Text: KSGJ 220358Z AUTO 29004KT 10SM CLR 20/19 A2997 RMK AO2 SLP147 T02000189
Loading
Personal Weather Stations






























Interactive Weather Map New forecast layout! Learn more

10-Day Weather Forecast

Advertisements
Track Severe Weather on mobile